createdAt,value
2019-02-20T00:00:52.544Z,8.40
2019-02-20T00:01:52.466Z,8.20
2019-02-20T00:02:52.434Z,8.40
2019-02-20T00:03:52.385Z,7.90
2019-02-20T00:04:52.337Z,8.10
2019-02-20T00:05:52.321Z,7.90
2019-02-20T00:06:52.282Z,8.60
2019-02-20T00:07:52.215Z,8.10
2019-02-20T00:08:52.170Z,8.10
2019-02-20T00:09:52.114Z,7.80
2019-02-20T00:10:52.095Z,8.40
2019-02-20T00:11:52.030Z,9.40
2019-02-20T00:12:51.988Z,9.00
2019-02-20T00:13:51.936Z,9.10
2019-02-20T00:14:51.890Z,8.40
2019-02-20T00:15:51.869Z,8.70
2019-02-20T00:16:51.802Z,9.20
2019-02-20T00:17:51.766Z,7.70
2019-02-20T00:18:51.722Z,7.90
2019-02-20T00:19:51.692Z,8.40
2019-02-20T00:20:51.625Z,8.60
2019-02-20T00:21:51.588Z,9.10
2019-02-20T00:22:51.541Z,10.10
2019-02-20T00:23:51.518Z,9.30
2019-02-20T00:24:51.452Z,9.80
2019-02-20T00:25:51.403Z,9.30
2019-02-20T00:26:51.362Z,9.60
2019-02-20T00:27:51.320Z,9.20
2019-02-20T00:28:51.299Z,8.90
2019-02-20T00:29:51.254Z,8.50
2019-02-20T00:30:51.182Z,9.00
2019-02-20T00:31:51.137Z,9.50
2019-02-20T00:32:51.090Z,8.40
2019-02-20T00:33:51.074Z,9.40
2019-02-20T00:34:51.009Z,9.60
2019-02-20T00:35:50.963Z,9.60
2019-02-20T00:36:50.944Z,9.40
2019-02-20T00:37:50.869Z,9.80
2019-02-20T00:38:50.827Z,8.80
2019-02-20T00:39:50.778Z,8.60
2019-02-20T00:40:50.737Z,9.30
2019-02-20T00:41:50.725Z,9.50
2019-02-20T00:42:50.665Z,9.20
2019-02-20T00:43:50.608Z,9.80
2019-02-20T00:44:50.563Z,9.30
2019-02-20T00:45:50.519Z,10.10
2019-02-20T00:46:50.499Z,9.10
2019-02-20T00:47:50.431Z,9.80
2019-02-20T00:48:50.392Z,8.80
2019-02-20T00:49:50.361Z,9.30
2019-02-20T00:50:50.310Z,9.40
2019-02-20T00:51:50.255Z,9.30
2019-02-20T00:52:50.602Z,9.90
2019-02-20T00:53:50.175Z,9.10
2019-02-20T00:54:50.118Z,9.90
2019-02-20T00:55:50.073Z,10.30
2019-02-20T00:56:50.039Z,10.10
2019-02-20T00:57:49.999Z,9.70
2019-02-20T00:58:49.937Z,9.80
2019-02-20T00:59:49.898Z,9.80
2019-02-20T01:00:49.876Z,9.50
2019-02-20T01:01:49.804Z,10.00
2019-02-20T01:02:49.753Z,9.80
2019-02-20T01:03:49.710Z,10.10
2019-02-20T01:04:49.689Z,11.00
2019-02-20T01:05:49.629Z,9.90
2019-02-20T01:06:49.582Z,10.10
2019-02-20T01:07:49.541Z,10.60
2019-02-20T01:08:49.519Z,9.90
2019-02-20T01:09:49.448Z,9.80
2019-02-20T01:10:49.420Z,9.90
2019-02-20T01:11:49.367Z,10.30
2019-02-20T01:12:49.308Z,9.50
2019-02-20T01:13:49.271Z,11.10
2019-02-20T01:14:49.253Z,10.00
2019-02-20T01:15:49.171Z,10.10
2019-02-20T01:16:49.131Z,9.70
2019-02-20T01:17:49.090Z,9.70
2019-02-20T01:18:49.047Z,10.60
2019-02-20T01:19:49.027Z,10.30
2019-02-20T01:20:48.954Z,10.60
2019-02-20T01:21:48.908Z,10.10
2019-02-20T01:22:48.884Z,10.60
2019-02-20T01:23:48.841Z,10.30
2019-02-20T01:24:48.769Z,11.00
2019-02-20T01:25:48.730Z,10.70
2019-02-20T01:26:48.684Z,11.60
2019-02-20T01:27:48.641Z,11.50
2019-02-20T01:28:48.636Z,10.80
2019-02-20T01:29:48.546Z,10.30
2019-02-20T01:30:48.500Z,10.70
2019-02-20T01:31:48.461Z,10.20
2019-02-20T01:32:48.418Z,9.30
2019-02-20T01:33:48.365Z,10.90
2019-02-20T01:34:48.351Z,10.30
2019-02-20T01:35:48.298Z,11.20
2019-02-20T01:36:48.234Z,10.90
2019-02-20T01:37:48.201Z,10.80
2019-02-20T01:38:48.153Z,9.80
2019-02-20T01:39:49.455Z,10.50
2019-02-20T01:40:48.098Z,10.10
2019-02-20T01:41:48.006Z,11.40
2019-02-20T01:42:47.971Z,10.60
2019-02-20T01:43:47.918Z,9.20
2019-02-20T01:44:47.868Z,10.70
2019-02-20T01:45:47.840Z,10.40
2019-02-20T01:46:47.817Z,11.00
2019-02-20T01:47:47.754Z,10.80
2019-02-20T01:48:47.704Z,10.10
2019-02-20T01:49:47.657Z,10.60
2019-02-20T01:50:47.614Z,10.20
2019-02-20T01:51:47.585Z,11.40
2019-02-20T01:52:47.516Z,10.10
2019-02-20T01:53:47.471Z,11.00
2019-02-20T01:54:47.429Z,11.30
2019-02-20T01:55:47.390Z,11.50
2019-02-20T01:56:47.368Z,10.80
2019-02-20T01:57:47.295Z,10.80
2019-02-20T01:58:47.250Z,11.20
2019-02-20T01:59:47.203Z,12.50
2019-02-20T02:00:47.157Z,11.80
2019-02-20T02:01:47.146Z,11.70
2019-02-20T02:02:47.090Z,11.50
2019-02-20T02:03:47.020Z,11.70
2019-02-20T02:04:46.990Z,12.00
2019-02-20T02:05:46.928Z,12.10
2019-02-20T02:06:46.890Z,12.60
2019-02-20T02:07:46.861Z,12.40
2019-02-20T02:08:46.786Z,12.10
2019-02-20T02:09:46.755Z,12.20
2019-02-20T02:10:46.710Z,12.60
2019-02-20T02:11:46.667Z,12.50
2019-02-20T02:12:46.640Z,12.00
2019-02-20T02:13:46.566Z,12.80
2019-02-20T02:14:46.520Z,11.60
2019-02-20T02:15:46.473Z,12.00
2019-02-20T02:16:46.428Z,11.70
2019-02-20T02:17:46.390Z,12.40
2019-02-20T02:18:46.379Z,11.70
2019-02-20T02:19:46.295Z,11.50
2019-02-20T02:20:46.257Z,11.40
2019-02-20T02:21:46.243Z,10.70
2019-02-20T02:22:46.166Z,11.60
2019-02-20T02:23:47.673Z,11.50
2019-02-20T02:24:46.077Z,11.90
2019-02-20T02:25:46.023Z,11.80
2019-02-20T02:26:45.982Z,11.90
2019-02-20T02:27:45.934Z,11.80
2019-02-20T02:28:45.887Z,12.20
2019-02-20T02:29:45.876Z,10.50
2019-02-20T02:30:45.807Z,11.00
2019-02-20T02:31:45.766Z,11.50
2019-02-20T02:32:45.711Z,10.80
2019-02-20T02:33:45.662Z,11.20
2019-02-20T02:34:45.614Z,11.20
2019-02-20T02:35:45.606Z,10.90
2019-02-20T02:36:45.533Z,11.20
2019-02-20T02:37:45.492Z,12.00
2019-02-20T02:38:45.459Z,10.80
2019-02-20T02:39:45.387Z,11.10
2019-02-20T02:40:45.374Z,12.80
2019-02-20T02:41:45.302Z,11.60
2019-02-20T02:42:45.263Z,11.40
2019-02-20T02:43:45.246Z,11.20
2019-02-20T02:44:45.172Z,12.30
2019-02-20T02:45:45.116Z,11.70
2019-02-20T02:46:45.075Z,11.90
2019-02-20T02:47:45.026Z,12.20
2019-02-20T02:48:45.033Z,11.90
2019-02-20T02:49:44.941Z,11.40
2019-02-20T02:50:44.894Z,12.10
2019-02-20T02:51:44.852Z,11.50
2019-02-20T02:52:44.801Z,11.50
2019-02-20T02:53:44.793Z,10.90
2019-02-20T02:54:44.725Z,11.70
2019-02-20T02:55:44.679Z,11.70
2019-02-20T02:56:44.626Z,11.40
2019-02-20T02:57:44.589Z,11.70
2019-02-20T02:58:44.555Z,11.20
2019-02-20T02:59:44.519Z,10.80
2019-02-20T03:00:44.435Z,11.00
2019-02-20T03:01:44.400Z,11.40
2019-02-20T03:02:44.361Z,10.90
2019-02-20T03:03:44.313Z,10.80
2019-02-20T03:04:44.288Z,11.30
2019-02-20T03:05:44.215Z,10.90
2019-02-20T03:06:44.176Z,10.90
2019-02-20T03:07:44.136Z,11.60
2019-02-20T03:08:44.084Z,11.00
2019-02-20T03:09:44.035Z,11.20
2019-02-20T03:10:44.022Z,11.10
2019-02-20T03:11:43.948Z,11.30
2019-02-20T03:12:43.914Z,11.50
2019-02-20T03:13:43.863Z,11.30
2019-02-20T03:14:43.816Z,11.00
2019-02-20T03:15:43.789Z,10.90
2019-02-20T03:16:43.727Z,10.90
2019-02-20T03:17:43.671Z,11.10
2019-02-20T03:18:43.626Z,10.70
2019-02-20T03:19:43.576Z,10.60
2019-02-20T03:20:43.559Z,11.00
2019-02-20T03:21:43.495Z,10.80
2019-02-20T03:22:43.448Z,10.80
2019-02-20T03:23:43.398Z,10.30
2019-02-20T03:24:43.354Z,10.10
2019-02-20T03:25:43.341Z,10.50
2019-02-20T03:26:43.266Z,10.70
2019-02-20T03:27:43.234Z,10.30
2019-02-20T03:28:43.179Z,9.90
2019-02-20T03:29:43.128Z,10.20
2019-02-20T03:30:43.092Z,10.00
2019-02-20T03:31:43.064Z,9.70
2019-02-20T03:32:42.996Z,10.50
2019-02-20T03:33:42.964Z,9.90
2019-02-20T03:34:42.939Z,9.90
2019-02-20T03:35:42.862Z,10.50
2019-02-20T03:36:42.819Z,10.00
2019-02-20T03:37:42.767Z,9.80
2019-02-20T03:38:42.719Z,9.90
2019-02-20T03:39:42.692Z,10.00
2019-02-20T03:40:42.669Z,9.60
2019-02-20T03:41:42.585Z,9.50
2019-02-20T03:42:42.567Z,9.10
2019-02-20T03:43:42.500Z,9.90
2019-02-20T03:44:42.457Z,9.70
2019-02-20T03:45:42.413Z,9.80
2019-02-20T03:46:42.392Z,9.90
2019-02-20T03:47:42.326Z,10.00
2019-02-20T03:48:42.303Z,9.10
2019-02-20T03:49:42.228Z,9.40
2019-02-20T03:50:42.186Z,9.80
2019-02-20T03:51:42.169Z,9.80
2019-02-20T03:52:42.098Z,9.10
2019-02-20T03:53:51.281Z,9.00
2019-02-20T03:54:42.006Z,8.60
2019-02-20T03:55:41.953Z,9.00
2019-02-20T03:56:41.919Z,9.00
2019-02-20T03:57:41.901Z,8.90
2019-02-20T03:58:41.839Z,9.10
2019-02-20T03:59:41.782Z,8.80
2019-02-20T04:00:41.740Z,8.80
2019-02-20T04:01:41.695Z,8.90
2019-02-20T04:02:41.653Z,8.90
2019-02-20T04:03:41.626Z,9.20
2019-02-20T04:04:41.561Z,9.60
2019-02-20T04:05:41.510Z,8.90
2019-02-20T04:06:41.486Z,8.70
2019-02-20T04:07:41.424Z,9.10
2019-02-20T04:08:41.401Z,9.30
2019-02-20T04:09:41.352Z,9.20
2019-02-20T04:10:41.285Z,8.80
2019-02-20T04:11:41.248Z,9.30
2019-02-20T04:12:41.233Z,8.80
2019-02-20T04:13:41.177Z,9.10
2019-02-20T04:14:41.101Z,9.00
2019-02-20T04:15:41.063Z,9.00
2019-02-20T04:16:41.014Z,8.60
2019-02-20T04:17:40.971Z,9.10
2019-02-20T04:18:40.975Z,8.90
2019-02-20T04:19:40.925Z,9.00
2019-02-20T04:20:40.837Z,9.30
2019-02-20T04:21:40.784Z,9.60
2019-02-20T04:22:40.746Z,9.10
2019-02-20T04:23:40.700Z,8.80
2019-02-20T04:24:40.681Z,8.30
2019-02-20T04:25:40.615Z,8.80
2019-02-20T04:26:40.572Z,7.90
2019-02-20T04:27:40.519Z,8.70
2019-02-20T04:28:40.478Z,8.80
2019-02-20T04:29:40.435Z,8.90
2019-02-20T04:30:40.419Z,8.90
2019-02-20T04:31:40.347Z,9.00
2019-02-20T04:32:40.305Z,9.10
2019-02-20T04:33:40.257Z,9.20
2019-02-20T04:34:40.217Z,8.90
2019-02-20T04:35:40.192Z,8.90
2019-02-20T04:36:40.124Z,8.80
2019-02-20T04:37:40.104Z,9.20
2019-02-20T04:38:40.040Z,9.10
2019-02-20T04:39:40.011Z,9.30
2019-02-20T04:40:39.969Z,9.30
2019-02-20T04:41:39.901Z,9.30
2019-02-20T04:42:39.851Z,9.40
2019-02-20T04:43:39.809Z,9.50
2019-02-20T04:44:39.777Z,9.30
2019-02-20T04:45:39.752Z,9.50
2019-02-20T04:46:39.669Z,9.20
2019-02-20T04:47:39.628Z,9.70
2019-02-20T04:48:39.579Z,9.00
2019-02-20T04:49:39.548Z,9.20
2019-02-20T04:50:39.544Z,8.60
2019-02-20T04:51:39.456Z,9.10
2019-02-20T04:52:39.411Z,9.20
2019-02-20T04:53:39.360Z,9.50
2019-02-20T04:54:39.316Z,9.70
2019-02-20T04:55:39.287Z,9.60
2019-02-20T04:56:39.249Z,9.70
2019-02-20T04:57:39.196Z,9.70
2019-02-20T04:58:39.146Z,9.30
2019-02-20T04:59:39.085Z,10.20
2019-02-20T05:00:39.045Z,12.80
2019-02-20T05:01:39.031Z,15.00
2019-02-20T05:02:38.972Z,16.00
2019-02-20T05:03:38.917Z,13.60
2019-02-20T05:04:38.872Z,13.10
2019-02-20T05:05:38.838Z,11.70
2019-02-20T05:06:38.807Z,14.10
2019-02-20T05:07:38.733Z,12.60
2019-02-20T05:08:38.682Z,12.20
2019-02-20T05:09:39.691Z,10.50
2019-02-20T05:10:38.596Z,11.50
2019-02-20T05:11:38.560Z,11.40
2019-02-20T05:12:38.533Z,10.90
2019-02-20T05:13:38.466Z,10.70
2019-02-20T05:14:38.416Z,9.90
2019-02-20T05:15:38.379Z,10.10
2019-02-20T05:16:38.330Z,9.50
2019-02-20T05:17:38.299Z,9.90
2019-02-20T05:18:38.234Z,9.50
2019-02-20T05:19:38.200Z,9.70
2019-02-20T05:20:38.150Z,10.00
2019-02-20T05:21:38.104Z,9.10
2019-02-20T05:22:38.111Z,9.80
2019-02-20T05:23:38.014Z,9.50
2019-02-20T05:24:37.970Z,10.70
2019-02-20T05:25:37.922Z,10.30
2019-02-20T05:26:37.913Z,10.60
2019-02-20T05:27:37.829Z,10.70
2019-02-20T05:28:37.806Z,10.60
2019-02-20T05:29:37.746Z,10.50
2019-02-20T05:30:37.708Z,10.00
2019-02-20T05:31:37.653Z,9.30
2019-02-20T05:32:37.611Z,10.30
2019-02-20T05:33:37.594Z,9.90
2019-02-20T05:34:37.558Z,9.60
2019-02-20T05:35:37.487Z,9.70
2019-02-20T05:36:37.444Z,10.00
2019-02-20T05:37:39.608Z,9.90
2019-02-20T05:38:37.337Z,9.90
2019-02-20T05:39:37.298Z,9.40
2019-02-20T05:40:37.252Z,9.80
2019-02-20T05:41:37.221Z,9.90
2019-02-20T05:42:37.199Z,9.40
2019-02-20T05:43:37.122Z,9.90
2019-02-20T05:44:37.078Z,9.80
2019-02-20T05:45:37.027Z,10.00
2019-02-20T05:46:36.986Z,10.50
2019-02-20T05:47:36.942Z,10.80
2019-02-20T05:48:36.921Z,9.90
2019-02-20T05:49:36.867Z,9.30
2019-02-20T05:50:36.798Z,9.20
2019-02-20T05:51:36.754Z,9.60
2019-02-20T05:52:36.737Z,9.90
2019-02-20T05:53:36.689Z,10.40
2019-02-20T05:54:36.628Z,9.80
2019-02-20T05:55:36.581Z,10.10
2019-02-20T05:56:36.541Z,9.40
2019-02-20T05:57:36.603Z,9.30
2019-02-20T05:58:36.444Z,9.50
2019-02-20T05:59:36.401Z,9.40
2019-02-20T06:00:36.353Z,10.10
2019-02-20T06:01:36.340Z,9.40
2019-02-20T06:02:36.294Z,9.90
2019-02-20T06:03:36.221Z,9.70
2019-02-20T06:04:36.178Z,10.50
2019-02-20T06:05:36.162Z,9.80
2019-02-20T06:06:36.085Z,9.60
2019-02-20T06:07:36.044Z,10.10
2019-02-20T06:08:36.001Z,10.30
2019-02-20T06:09:35.945Z,10.30
2019-02-20T06:10:35.924Z,10.70
2019-02-20T06:11:35.860Z,10.60
2019-02-20T06:12:35.846Z,10.70
2019-02-20T06:13:35.794Z,10.70
2019-02-20T06:14:35.727Z,10.00
2019-02-20T06:15:35.685Z,10.00
2019-02-20T06:16:35.659Z,10.40
2019-02-20T06:17:35.614Z,10.50
2019-02-20T06:18:35.543Z,10.50
2019-02-20T06:19:35.499Z,10.80
2019-02-20T06:20:35.458Z,9.80
2019-02-20T06:21:35.432Z,10.60
2019-02-20T06:22:35.375Z,10.40
2019-02-20T06:23:35.316Z,9.70
2019-02-20T06:24:43.916Z,10.80
2019-02-20T06:25:35.245Z,11.10
2019-02-20T06:26:35.214Z,10.90
2019-02-20T06:27:35.143Z,10.90
2019-02-20T06:28:35.102Z,10.30
2019-02-20T06:29:35.044Z,10.10
2019-02-20T06:30:35.013Z,10.80
2019-02-20T06:31:34.995Z,11.10
2019-02-20T06:32:34.908Z,11.00
2019-02-20T06:33:34.878Z,10.90
2019-02-20T06:34:34.818Z,10.70
2019-02-20T06:35:34.766Z,11.00
2019-02-20T06:36:34.740Z,9.90
2019-02-20T06:37:34.707Z,10.00
2019-02-20T06:38:34.643Z,11.30
2019-02-20T06:39:34.591Z,10.70
2019-02-20T06:40:34.561Z,10.90
2019-02-20T06:41:39.195Z,10.00
2019-02-20T06:42:34.454Z,9.90
2019-02-20T06:43:34.411Z,10.20
2019-02-20T06:44:34.356Z,10.40
2019-02-20T06:45:34.319Z,11.00
2019-02-20T06:46:34.274Z,10.40
2019-02-20T06:47:34.258Z,9.70
2019-02-20T06:48:34.182Z,10.40
2019-02-20T06:49:34.128Z,10.40
2019-02-20T06:50:34.085Z,10.40
2019-02-20T06:51:34.046Z,10.00
2019-02-20T06:52:34.001Z,9.90
2019-02-20T06:53:33.973Z,10.90
2019-02-20T06:54:33.900Z,10.40
2019-02-20T06:55:33.861Z,10.40
2019-02-20T06:56:33.811Z,9.70
2019-02-20T06:57:33.775Z,10.50
2019-02-20T06:58:33.754Z,10.30
2019-02-20T06:59:33.685Z,10.20
2019-02-20T07:00:33.638Z,9.80
2019-02-20T07:01:33.587Z,10.20
2019-02-20T07:02:33.544Z,9.90
2019-02-20T07:03:33.498Z,9.80
2019-02-20T07:04:33.474Z,10.10
2019-02-20T07:05:33.414Z,10.30
2019-02-20T07:06:33.368Z,10.50
2019-02-20T07:07:33.317Z,10.70
2019-02-20T07:08:33.271Z,10.50
2019-02-20T07:09:33.284Z,10.30
2019-02-20T07:10:33.193Z,10.40
2019-02-20T07:11:33.143Z,9.90
2019-02-20T07:12:33.100Z,10.20
2019-02-20T07:13:33.050Z,10.50
2019-02-20T07:14:33.006Z,10.10
2019-02-20T07:15:32.982Z,11.30
2019-02-20T07:16:32.911Z,10.30
2019-02-20T07:17:32.875Z,10.30
2019-02-20T07:18:32.833Z,10.80
2019-02-20T07:19:32.786Z,10.70
2019-02-20T07:20:32.766Z,10.10
2019-02-20T07:21:32.689Z,10.40
2019-02-20T07:22:32.648Z,10.70
2019-02-20T07:23:32.607Z,10.40
2019-02-20T07:24:32.566Z,10.10
2019-02-20T07:25:32.539Z,10.70
2019-02-20T07:26:32.473Z,11.20
2019-02-20T07:27:32.424Z,10.10
2019-02-20T07:28:32.381Z,10.60
2019-02-20T07:29:32.342Z,10.70
2019-02-20T07:30:32.297Z,10.70
2019-02-20T07:31:32.282Z,10.90
2019-02-20T07:32:32.208Z,10.70
2019-02-20T07:33:32.160Z,10.40
2019-02-20T07:34:32.115Z,10.90
2019-02-20T07:35:32.068Z,10.10
2019-02-20T07:36:32.047Z,10.10
2019-02-20T07:37:31.990Z,10.50
2019-02-20T07:38:31.945Z,10.10
2019-02-20T07:39:31.894Z,10.50
2019-02-20T07:40:31.844Z,10.70
2019-02-20T07:41:31.836Z,11.40
2019-02-20T07:42:31.768Z,10.60
2019-02-20T07:43:31.721Z,11.40
2019-02-20T07:44:31.692Z,10.90
2019-02-20T07:45:31.626Z,10.70
2019-02-20T07:46:31.615Z,11.00
2019-02-20T07:47:31.536Z,10.90
2019-02-20T07:48:31.498Z,11.50
2019-02-20T07:49:31.463Z,11.10
2019-02-20T07:50:31.418Z,11.30
2019-02-20T07:51:31.386Z,11.50
2019-02-20T07:52:31.354Z,11.50
2019-02-20T07:53:31.277Z,11.40
2019-02-20T07:54:31.234Z,11.80
2019-02-20T07:55:31.196Z,11.20
2019-02-20T07:56:31.152Z,10.80
2019-02-20T07:57:31.133Z,10.60
2019-02-20T07:58:31.054Z,10.50
2019-02-20T07:59:31.012Z,10.60
2019-02-20T08:00:30.970Z,10.70
2019-02-20T08:01:30.935Z,11.10
2019-02-20T08:02:30.891Z,10.50
2019-02-20T08:03:30.878Z,11.20
2019-02-20T08:04:30.803Z,11.10
2019-02-20T08:05:30.771Z,10.90
2019-02-20T08:06:30.710Z,10.90
2019-02-20T08:07:30.665Z,10.90
2019-02-20T08:08:30.649Z,10.70
2019-02-20T08:09:30.589Z,10.90
2019-02-20T08:10:30.541Z,10.80
2019-02-20T08:11:30.494Z,11.10
2019-02-20T08:12:30.457Z,10.40
2019-02-20T08:13:38.875Z,10.80
2019-02-20T08:14:30.374Z,10.90
2019-02-20T08:15:30.328Z,9.70
2019-02-20T08:16:30.285Z,10.60
2019-02-20T08:17:30.244Z,11.40
2019-02-20T08:18:30.224Z,10.80
2019-02-20T08:19:30.158Z,10.40
2019-02-20T08:20:30.112Z,11.30
2019-02-20T08:21:30.082Z,11.00
2019-02-20T08:22:30.044Z,11.20
2019-02-20T08:23:30.019Z,10.60
2019-02-20T08:24:29.955Z,11.00
2019-02-20T08:25:29.907Z,11.00
2019-02-20T08:26:29.871Z,11.00
2019-02-20T08:27:29.834Z,11.50
2019-02-20T08:28:29.790Z,11.70
2019-02-20T08:29:29.758Z,11.70
2019-02-20T08:30:29.694Z,11.50
2019-02-20T08:31:29.652Z,12.00
2019-02-20T08:32:29.608Z,12.40
2019-02-20T08:33:29.576Z,12.60
2019-02-20T08:34:29.559Z,12.60
2019-02-20T08:35:29.496Z,12.50
2019-02-20T08:36:29.446Z,12.00
2019-02-20T08:37:29.414Z,12.60
2019-02-20T08:38:29.355Z,13.20
2019-02-20T08:39:29.395Z,13.70
2019-02-20T08:40:29.274Z,13.90
2019-02-20T08:41:29.238Z,13.50
2019-02-20T08:42:29.220Z,13.60
2019-02-20T08:43:29.149Z,13.30
2019-02-20T08:44:29.119Z,14.00
2019-02-20T08:45:29.096Z,13.60
2019-02-20T08:46:29.026Z,13.50
2019-02-20T08:47:28.989Z,13.70
2019-02-20T08:48:28.953Z,13.90
2019-02-20T08:49:28.904Z,13.40
2019-02-20T08:50:28.880Z,13.50
2019-02-20T08:51:28.818Z,14.00
2019-02-20T08:52:28.770Z,14.20
2019-02-20T08:53:28.735Z,14.00
2019-02-20T08:54:28.693Z,14.60
2019-02-20T08:55:32.055Z,14.70
2019-02-20T08:56:28.617Z,14.30
2019-02-20T08:57:28.580Z,14.30
2019-02-20T08:58:28.524Z,15.00
2019-02-20T08:59:28.499Z,15.60
2019-02-20T09:00:28.442Z,15.40
2019-02-20T09:01:28.421Z,16.00
2019-02-20T09:02:28.356Z,16.20
2019-02-20T09:03:28.324Z,15.80
2019-02-20T09:04:28.273Z,15.90
2019-02-20T09:05:28.243Z,15.00
2019-02-20T09:06:28.198Z,15.50
2019-02-20T09:07:28.166Z,15.30
2019-02-20T09:08:28.103Z,16.10
2019-02-20T09:09:28.053Z,16.20
2019-02-20T09:10:28.014Z,15.10
2019-02-20T09:11:27.998Z,15.30
2019-02-20T09:12:27.928Z,15.60
2019-02-20T09:13:27.893Z,15.00
2019-02-20T09:14:27.867Z,15.90
2019-02-20T09:15:27.802Z,16.30
2019-02-20T09:16:27.765Z,16.00
2019-02-20T09:17:27.760Z,16.00
2019-02-20T09:18:27.712Z,15.80
2019-02-20T09:19:27.651Z,16.50
2019-02-20T09:20:27.600Z,16.40
2019-02-20T09:21:27.562Z,16.30
2019-02-20T09:22:27.522Z,16.30
2019-02-20T09:23:27.506Z,16.40
2019-02-20T09:24:27.439Z,16.00
2019-02-20T09:25:27.400Z,17.40
2019-02-20T09:26:27.358Z,16.90
2019-02-20T09:27:27.342Z,16.50
2019-02-20T09:28:27.277Z,16.50
2019-02-20T09:29:27.227Z,16.10
2019-02-20T09:30:28.912Z,15.90
2019-02-20T09:31:27.150Z,16.60
2019-02-20T09:32:27.135Z,16.30
2019-02-20T09:33:27.059Z,16.50
2019-02-20T09:34:27.017Z,15.90
2019-02-20T09:35:26.977Z,16.20
2019-02-20T09:36:26.936Z,16.00
2019-02-20T09:37:26.901Z,16.90
2019-02-20T09:38:26.892Z,17.50
2019-02-20T09:39:26.825Z,16.00
2019-02-20T09:40:26.780Z,16.70
2019-02-20T09:41:26.732Z,17.10
2019-02-20T09:42:26.694Z,16.40
2019-02-20T09:43:26.656Z,16.70
2019-02-20T09:44:26.638Z,16.50
2019-02-20T09:45:26.582Z,16.10
2019-02-20T09:46:26.539Z,16.60
2019-02-20T09:47:26.491Z,16.60
2019-02-20T09:48:26.452Z,15.90
2019-02-20T09:49:26.422Z,15.90
2019-02-20T09:50:26.416Z,17.70
2019-02-20T09:51:26.367Z,18.10
2019-02-20T09:52:26.305Z,17.60
2019-02-20T09:53:26.258Z,19.20
2019-02-20T09:54:26.220Z,18.10
2019-02-20T09:55:26.183Z,18.30
2019-02-20T09:56:26.167Z,18.40
2019-02-20T09:57:26.113Z,18.90
2019-02-20T09:58:26.079Z,19.20
2019-02-20T09:59:26.042Z,19.60
2019-02-20T10:00:26.002Z,19.10
2019-02-20T10:01:26.155Z,20.00
2019-02-20T10:02:25.922Z,19.20
2019-02-20T10:03:25.891Z,19.90
2019-02-20T10:04:25.854Z,19.20
2019-02-20T10:05:25.810Z,20.20
2019-02-20T10:06:25.773Z,20.40
2019-02-20T10:07:25.760Z,19.60
2019-02-20T10:08:25.699Z,19.90
2019-02-20T10:09:25.669Z,20.00
2019-02-20T10:10:25.661Z,20.70
2019-02-20T10:11:25.593Z,19.70
2019-02-20T10:12:25.556Z,20.60
2019-02-20T10:13:25.515Z,20.60
2019-02-20T10:14:25.503Z,20.70
2019-02-20T10:15:25.440Z,20.40
2019-02-20T10:16:25.402Z,20.70
2019-02-20T10:17:27.223Z,20.60
2019-02-20T10:18:25.359Z,20.80
2019-02-20T10:19:25.292Z,20.10
2019-02-20T10:20:25.278Z,20.50
2019-02-20T10:21:25.247Z,21.30
2019-02-20T10:22:25.185Z,20.90
2019-02-20T10:23:25.148Z,21.30
2019-02-20T10:24:25.127Z,21.10
2019-02-20T10:25:25.070Z,20.20
2019-02-20T10:26:25.055Z,21.70
2019-02-20T10:27:24.991Z,21.00
2019-02-20T10:28:24.962Z,21.70
2019-02-20T10:29:24.935Z,22.10
2019-02-20T10:30:24.906Z,22.00
2019-02-20T10:31:24.879Z,23.00
2019-02-20T10:32:24.820Z,21.40
2019-02-20T10:33:24.775Z,22.60
2019-02-20T10:34:24.743Z,22.20
2019-02-20T10:35:24.733Z,22.70
2019-02-20T10:36:24.679Z,21.90
2019-02-20T10:37:24.634Z,23.20
2019-02-20T10:38:24.591Z,22.40
2019-02-20T10:39:24.554Z,23.10
2019-02-20T10:40:24.547Z,23.40
2019-02-20T10:41:24.492Z,23.60
2019-02-20T10:42:24.499Z,22.60
2019-02-20T10:43:24.427Z,22.20
2019-02-20T10:44:24.387Z,23.00
2019-02-20T10:45:24.345Z,22.90
2019-02-20T10:46:24.308Z,24.00
2019-02-20T10:47:24.295Z,23.80
2019-02-20T10:48:24.233Z,23.90
2019-02-20T10:49:24.206Z,25.10
2019-02-20T10:50:24.174Z,24.70
2019-02-20T10:51:24.127Z,25.20
2019-02-20T10:52:24.120Z,24.30
2019-02-20T10:53:24.065Z,25.30
2019-02-20T10:54:24.027Z,25.20
2019-02-20T10:55:23.991Z,25.20
2019-02-20T10:56:23.958Z,25.10
2019-02-20T10:57:23.910Z,25.10
2019-02-20T10:58:23.893Z,25.80
2019-02-20T10:59:23.834Z,23.90
2019-02-20T11:00:24.525Z,24.50
2019-02-20T11:01:23.768Z,24.60
2019-02-20T11:02:23.730Z,24.30
2019-02-20T11:03:23.719Z,23.30
2019-02-20T11:04:23.680Z,23.60
2019-02-20T11:05:23.617Z,21.60
2019-02-20T11:06:23.574Z,21.40
2019-02-20T11:07:23.547Z,20.40
2019-02-20T11:08:23.537Z,20.00
2019-02-20T11:09:23.462Z,19.10
2019-02-20T11:10:24.095Z,19.60
2019-02-20T11:11:23.389Z,18.70
2019-02-20T11:12:23.353Z,18.40
2019-02-20T11:13:23.319Z,18.20
2019-02-20T11:14:23.309Z,16.80
2019-02-20T11:15:23.256Z,17.50
2019-02-20T11:16:23.212Z,17.10
2019-02-20T11:17:23.163Z,16.60
2019-02-20T11:18:23.124Z,16.40
2019-02-20T11:19:23.093Z,16.00
2019-02-20T11:20:23.094Z,15.80
2019-02-20T11:21:23.022Z,15.40
2019-02-20T11:22:22.980Z,14.10
2019-02-20T11:23:22.939Z,15.00
2019-02-20T11:24:22.903Z,14.30
2019-02-20T11:25:22.897Z,14.10
2019-02-20T11:26:22.842Z,14.30
2019-02-20T11:27:22.800Z,14.60
2019-02-20T11:28:26.940Z,13.80
2019-02-20T11:29:22.717Z,14.10
2019-02-20T11:30:22.714Z,13.80
2019-02-20T11:31:22.670Z,13.90
2019-02-20T11:32:22.609Z,14.00
2019-02-20T11:33:22.580Z,13.20
2019-02-20T11:34:22.544Z,12.80
2019-02-20T11:35:22.506Z,13.00
2019-02-20T11:36:22.492Z,12.40
2019-02-20T11:37:22.427Z,13.20
2019-02-20T11:38:22.390Z,12.40
2019-02-20T11:39:22.354Z,12.50
2019-02-20T11:40:22.321Z,12.50
2019-02-20T11:41:22.305Z,11.90
2019-02-20T11:42:22.238Z,11.10
2019-02-20T11:43:22.201Z,11.50
2019-02-20T11:44:22.167Z,11.60
2019-02-20T11:45:22.143Z,10.90
2019-02-20T11:46:22.118Z,9.50
2019-02-20T11:47:22.059Z,9.30
2019-02-20T11:48:22.024Z,9.00
2019-02-20T11:49:21.978Z,7.90
2019-02-20T11:50:21.943Z,7.80
2019-02-20T11:51:21.933Z,7.50
2019-02-20T11:52:21.867Z,7.50
2019-02-20T11:53:21.837Z,8.10
2019-02-20T11:54:21.798Z,7.60
2019-02-20T11:55:21.761Z,7.80
2019-02-20T11:56:26.651Z,7.90
2019-02-20T11:57:21.708Z,8.30
2019-02-20T11:58:21.671Z,7.90
2019-02-20T11:59:21.618Z,8.30
2019-02-20T12:00:21.571Z,8.00
2019-02-20T12:01:21.606Z,8.30
2019-02-20T12:02:21.490Z,8.00
2019-02-20T12:03:21.452Z,7.50
2019-02-20T12:04:21.415Z,7.80
2019-02-20T12:05:21.387Z,7.60
2019-02-20T12:06:21.358Z,7.30
2019-02-20T12:07:21.337Z,7.90
2019-02-20T12:08:21.272Z,7.60
2019-02-20T12:09:21.227Z,7.80
2019-02-20T12:10:21.185Z,7.50
2019-02-20T12:11:21.157Z,7.60
2019-02-20T12:12:21.142Z,7.40
2019-02-20T12:13:21.077Z,7.30
2019-02-20T12:14:24.174Z,7.40
2019-02-20T12:15:21.002Z,7.50
2019-02-20T12:16:20.964Z,7.60
2019-02-20T12:17:20.961Z,7.90
2019-02-20T12:18:20.898Z,7.20
2019-02-20T12:19:20.866Z,7.50
2019-02-20T12:20:20.825Z,7.40
2019-02-20T12:21:20.777Z,7.10
2019-02-20T12:22:20.743Z,6.90
2019-02-20T12:23:20.730Z,6.60
2019-02-20T12:24:20.665Z,7.10
2019-02-20T12:25:20.633Z,6.80
2019-02-20T12:26:20.601Z,7.10
2019-02-20T12:27:20.566Z,6.70
2019-02-20T12:28:20.520Z,6.80
2019-02-20T12:29:20.510Z,7.10
2019-02-20T12:30:20.448Z,7.20
2019-02-20T12:31:20.419Z,6.30
2019-02-20T12:32:20.371Z,7.10
2019-02-20T12:33:20.329Z,6.30
2019-02-20T12:34:20.318Z,6.60
2019-02-20T12:35:20.248Z,6.30
2019-02-20T12:36:20.215Z,6.60
2019-02-20T12:37:20.200Z,6.20
2019-02-20T12:38:20.142Z,6.00
2019-02-20T12:39:20.109Z,6.30
2019-02-20T12:40:20.100Z,5.90
2019-02-20T12:41:20.019Z,6.10
2019-02-20T12:42:19.985Z,5.90
2019-02-20T12:43:19.953Z,6.20
2019-02-20T12:44:19.942Z,5.90
2019-02-20T12:45:19.864Z,5.40
2019-02-20T12:46:19.830Z,5.10
2019-02-20T12:47:19.790Z,4.90
2019-02-20T12:48:19.757Z,5.40
2019-02-20T12:49:19.755Z,5.30
2019-02-20T12:50:19.691Z,5.30
2019-02-20T12:51:19.656Z,6.00
2019-02-20T12:52:19.609Z,5.60
2019-02-20T12:53:19.563Z,6.50
2019-02-20T12:54:19.535Z,5.80
2019-02-20T12:55:19.512Z,5.80
2019-02-20T12:56:19.449Z,6.10
2019-02-20T12:57:19.419Z,6.20
2019-02-20T12:58:19.384Z,5.80
2019-02-20T12:59:19.339Z,5.60
2019-02-20T13:00:19.329Z,4.80
2019-02-20T13:01:19.277Z,5.20